18 | 07 | 2018

Daten Vortag

Wetterdaten von 10m Höhe gemessen, Station 2

 

Datum / Zeit Intervall min Luftfeuchte % Temperatur °C absolut Luftdruck hPa Wind m/s Windbö m/s Richtung Relative Luftdruck hPa Taupunkt °C Windchill °C Niederschlag mm
17-07-2018 00:11 5 96 16.9 1011.2 0.0 0.0 SW 1014.3 16.3 16.9 0.0
17-07-2018 00:15 5 95 16.8 1011.3 0.0 0.0 NW 1014.4 16.0 16.8 0.0
17-07-2018 00:20 5 96 16.5 1011.1 0.0 0.0 NW 1014.2 15.9 16.5 0.0
17-07-2018 00:25 5 97 16.3 1011.1 0.0 0.0 NW 1014.2 15.8 16.3 0.0
17-07-2018 00:30 5 97 16.2 1011.1 0.0 0.0 NW 1014.2 15.7 16.2 0.0
17-07-2018 00:35 5 97 16.1 1011.3 0.0 0.0 NW 1014.4 15.6 16.1 0.0
17-07-2018 00:40 5 99 15.9 1011.2 0.0 0.0 NW 1014.3 15.8 15.9 0.0
17-07-2018 00:45 5 99 15.9 1011.2 0.0 0.0 NW 1014.3 15.8 15.9 0.0
17-07-2018 00:50 5 99 15.8 1011.1 0.0 0.0 NW 1014.2 15.7 15.8 0.0
17-07-2018 00:55 5 99 15.7 1011.1 0.0 0.0 NW 1014.2 15.6 15.7 0.0
17-07-2018 01:00 5 99 15.8 1011.1 0.0 0.0 NW 1014.2 15.7 15.8 0.0
17-07-2018 01:05 5 99 15.7 1010.9 0.0 0.0 NW 1014.0 15.6 15.7 0.0
17-07-2018 01:10 5 99 15.7 1011.0 0.0 0.0 NW 1014.1 15.6 15.7 0.0
17-07-2018 01:15 5 99 15.5 1011.1 0.0 0.0 NW 1014.2 15.4 15.5 0.0
17-07-2018 01:20 5 99 15.4 1010.9 0.0 0.0 NW 1014.0 15.3 15.4 0.0
17-07-2018 01:25 5 99 15.3 1010.9 0.0 0.0 NW 1014.0 15.2 15.3 0.0
17-07-2018 01:30 5 99 15.1 1010.8 0.0 0.0 W 1013.9 15.0 15.1 0.0
17-07-2018 01:35 5 99 14.9 1010.7 0.0 0.0 W 1013.8 14.8 14.9 0.0
17-07-2018 01:40 5 99 14.9 1010.7 0.0 0.0 W 1013.8 14.8 14.9 0.0
17-07-2018 01:45 5 99 14.8 1010.7 0.0 0.0 W 1013.8 14.7 14.8 0.0
17-07-2018 01:50 5 99 14.7 1010.7 0.0 0.0 W 1013.8 14.6 14.7 0.0
17-07-2018 01:55 5 99 14.6 1010.9 0.0 0.0 W 1014.0 14.5 14.6 0.0
17-07-2018 02:00 5 99 14.6 1010.8 0.0 0.0 W 1013.9 14.5 14.6 0.0
17-07-2018 02:05 5 99 14.7 1010.8 0.0 0.0 W 1013.9 14.6 14.7 0.0
17-07-2018 02:10 5 99 14.8 1010.8 0.0 0.0 W 1013.9 14.7 14.8 0.0
17-07-2018 02:15 5 99 14.7 1010.7 0.0 0.0 W 1013.8 14.6 14.7 0.0
17-07-2018 02:20 5 99 14.7 1010.8 0.0 0.0 W 1013.9 14.6 14.7 0.0
17-07-2018 02:25 5 99 14.8 1010.8 0.0 0.0 W 1013.9 14.7 14.8 0.0
17-07-2018 02:30 5 99 14.8 1010.8 0.0 0.0 W 1013.9 14.7 14.8 0.0
17-07-2018 02:35 5 99 14.8 1010.6 0.0 0.0 W 1013.7 14.7 14.8 0.0
17-07-2018 02:40 5 99 14.7 1010.6 0.0 0.0 W 1013.7 14.6 14.7 0.0
17-07-2018 02:45 5 99 14.8 1010.5 0.0 0.0 W 1013.6 14.7 14.8 0.0
17-07-2018 02:50 5 99 14.8 1010.4 0.0 0.0 W 1013.5 14.7 14.8 0.0
17-07-2018 02:55 5 99 14.6 1010.4 0.0 0.0 W 1013.5 14.5 14.6 0.0
17-07-2018 03:00 5 99 14.5 1010.5 0.0 0.0 W 1013.6 14.4 14.5 0.0
17-07-2018 03:05 5 99 14.2 1010.4 0.0 0.0 W 1013.5 14.1 14.2 0.0
17-07-2018 03:10 5 99 14.1 1010.3 0.0 0.0 W 1013.4 14.0 14.1 0.0
17-07-2018 03:15 5 99 14.1 1010.2 0.0 0.0 W 1013.3 14.0 14.1 0.0
17-07-2018 03:20 5 99 14.0 1010.1 0.0 0.0 W 1013.2 13.9 14.0 0.0
17-07-2018 03:25 5 99 14.0 1010.3 0.0 0.0 W 1013.4 13.9 14.0 0.0
17-07-2018 03:30 5 99 13.8 1010.2 0.0 0.0 W 1013.3 13.7 13.8 0.0
17-07-2018 03:35 5 99 13.8 1010.2 0.0 0.0 W 1013.3 13.7 13.8 0.0
17-07-2018 03:40 5 99 13.8 1010.1 0.0 0.0 W 1013.2 13.7 13.8 0.0
17-07-2018 03:45 5 99 13.8 1010.1 0.0 0.0 W 1013.2 13.7 13.8 0.0
17-07-2018 03:50 5 99 13.7 1010.1 0.0 0.0 W 1013.2 13.6 13.7 0.0
17-07-2018 03:55 5 99 13.6 1010.1 0.0 0.0 W 1013.2 13.5 13.6 0.0
17-07-2018 04:00 5 99 13.6 1010.1 0.0 0.0 W 1013.2 13.5 13.6 0.0
17-07-2018 04:05 5 99 13.6 1010.1 0.0 0.0 W 1013.2 13.5 13.6 0.0
17-07-2018 04:10 5 99 14.0 1010.0 0.0 0.0 W 1013.1 13.9 14.0 0.0
17-07-2018 04:15 5 99 13.9 1009.9 0.0 0.0 W 1013.0 13.8 13.9 0.0
17-07-2018 04:20 5 99 14.0 1010.2 0.0 0.0 W 1013.3 13.9 14.0 0.0
17-07-2018 04:25 5 99 13.9 1010.2 0.0 0.0 W 1013.3 13.8 13.9 0.0
17-07-2018 04:30 5 99 13.6 1010.1 0.0 0.0 W 1013.2 13.5 13.6 0.0
17-07-2018 04:35 5 99 13.5 1010.1 0.0 0.0 W 1013.2 13.4 13.5 0.0
17-07-2018 04:40 5 99 13.5 1010.1 0.0 0.0 W 1013.2 13.4 13.5 0.0
17-07-2018 04:45 5 99 13.6 1010.0 0.0 0.0 W 1013.1 13.5 13.6 0.0
17-07-2018 04:50 5 99 13.7 1010.0 0.0 0.0 W 1013.1 13.6 13.7 0.0
17-07-2018 04:55 5 99 13.6 1010.2 0.0 0.0 W 1013.3 13.5 13.6 0.0
17-07-2018 05:00 5 99 13.6 1010.0 0.0 0.0 W 1013.1 13.5 13.6 0.0
17-07-2018 05:05 5 99 13.5 1009.9 0.0 0.0 W 1013.0 13.4 13.5 0.0
17-07-2018 05:10 5 99 13.5 1010.0 0.0 0.0 W 1013.1 13.4 13.5 0.0
17-07-2018 05:15 5 99 13.5 1010.0 0.0 0.0 W 1013.1 13.4 13.5 0.0
17-07-2018 05:20 5 99 13.5 1010.1 0.0 0.0 W 1013.2 13.4 13.5 0.0
17-07-2018 05:25 5 99 13.6 1010.1 0.0 0.0 W 1013.2 13.5 13.6 0.0
17-07-2018 05:30 5 99 13.6 1010.1 0.0 0.0 W 1013.2 13.5 13.6 0.0
17-07-2018 05:35 5 99 13.6 1010.0 0.0 0.0 W 1013.1 13.5 13.6 0.0
17-07-2018 05:40 5 99 13.7 1010.0 0.0 0.0 W 1013.1 13.6 13.7 0.0
17-07-2018 05:45 5 99 13.9 1010.0 0.0 0.0 W 1013.1 13.8 13.9 0.0
17-07-2018 05:50 5 99 13.9 1009.9 0.0 0.0 W 1013.0 13.8 13.9 0.0
17-07-2018 05:55 5 99 13.9 1010.0 0.0 0.0 W 1013.1 13.8 13.9 0.0
17-07-2018 06:00 5 99 13.9 1009.8 0.0 0.0 W 1012.9 13.8 13.9 0.0
17-07-2018 06:05 5 99 13.9 1009.8 0.0 0.0 W 1012.9 13.8 13.9 0.0
17-07-2018 06:10 5 99 14.0 1009.6 0.0 0.0 W 1012.7 13.9 14.0 0.0
17-07-2018 06:15 5 99 14.1 1009.6 0.0 0.0 W 1012.7 14.0 14.1 0.0
17-07-2018 06:20 5 99 14.2 1009.7 0.0 0.0 W 1012.8 14.1 14.2 0.0
17-07-2018 06:25 5 99 14.2 1009.6 0.0 0.0 W 1012.7 14.1 14.2 0.0
17-07-2018 06:30 5 99 14.4 1009.6 0.0 0.0 W 1012.7 14.3 14.4 0.0
17-07-2018 06:35 5 99 14.5 1009.5 0.0 0.0 W 1012.6 14.4 14.5 0.0
17-07-2018 06:40 5 99 14.7 1009.7 0.0 0.0 W 1012.8 14.6 14.7 0.0
17-07-2018 06:45 5 99 15.0 1009.6 0.0 0.0 W 1012.7 14.9 15.0 0.0
17-07-2018 06:50 5 99 15.2 1009.7 1.1 2.5 W 1012.8 15.1 15.2 0.0
17-07-2018 06:55 5 99 15.2 1009.7 1.1 2.5 W 1012.8 15.1 15.2 0.0
17-07-2018 07:00 5 99 15.7 1009.6 0.0 0.0 W 1012.7 15.6 15.7 0.0
17-07-2018 07:05 5 98 16.5 1009.7 0.0 1.1 W 1012.8 16.2 16.5 0.0
17-07-2018 07:10 5 98 16.5 1009.7 2.5 3.6 W 1012.8 16.2 16.5 0.0
17-07-2018 07:15 5 98 16.6 1009.7 2.5 3.6 W 1012.8 16.3 16.6 0.0
17-07-2018 07:20 5 98 16.5 1009.7 1.1 3.6 W 1012.8 16.2 16.5 0.0
17-07-2018 07:25 5 98 16.5 1009.7 0.0 2.5 W 1012.8 16.2 16.5 0.0
17-07-2018 07:30 5 98 16.5 1009.9 0.0 0.0 W 1013.0 16.2 16.5 0.0
17-07-2018 07:35 5 97 16.7 1009.9 0.0 0.0 W 1013.0 16.2 16.7 0.0
17-07-2018 07:40 5 97 16.9 1010.0 0.0 0.0 W 1013.1 16.4 16.9 0.0
17-07-2018 07:45 5 95 17.3 1009.8 1.1 3.6 W 1012.9 16.5 17.3 0.0
17-07-2018 07:50 5 95 18.2 1010.0 0.0 0.0 NWW 1013.1 17.4 18.2 0.0
17-07-2018 07:55 5 93 19.5 1009.9 1.1 2.5 NWW 1013.0 18.4 19.5 0.0
17-07-2018 08:00 5 86 20.2 1009.9 1.1 3.6 NWW 1013.0 17.8 20.2 0.0
17-07-2018 08:05 5 86 20.2 1010.1 1.1 3.6 NWW 1013.2 17.8 20.2 0.0
17-07-2018 08:10 5 84 20.8 1010.1 1.1 3.6 W 1013.2 18.0 20.8 0.0
17-07-2018 08:15 5 79 21.6 1010.1 2.5 3.6 W 1013.2 17.8 21.6 0.0
17-07-2018 08:20 5 76 21.2 1010.2 2.5 5.0 NW 1013.3 16.8 21.2 0.0
17-07-2018 08:25 5 76 21.1 1010.4 1.1 3.6 W 1013.5 16.7 21.1 0.0
17-07-2018 08:30 5 76 21.4 1010.1 1.1 2.5 W 1013.2 17.0 21.4 0.0
17-07-2018 08:35 5 75 22.4 1010.0 1.1 3.6 W 1013.1 17.8 22.4 0.0
17-07-2018 08:40 5 72 22.3 1010.1 1.1 2.5 W 1013.2 17.0 22.3 0.0
17-07-2018 08:45 5 74 22.1 1010.0 1.1 2.5 W 1013.1 17.3 22.1 0.0
17-07-2018 08:50 5 77 23.1 1010.0 0.0 0.0 W 1013.1 18.9 23.1 0.0
17-07-2018 08:55 5 75 24.3 1010.0 1.1 2.5 W 1013.1 19.6 24.3 0.0
17-07-2018 09:00 5 68 24.8 1010.0 0.0 1.1 NW 1013.1 18.5 24.8 0.0
17-07-2018 09:05 5 65 24.9 1010.0 3.6 6.1 W 1013.1 17.9 24.9 0.0
17-07-2018 09:10 5 60 24.5 1010.1 6.1 8.6 NW 1013.2 16.3 24.5 0.0
17-07-2018 09:15 5 58 24.3 1010.0 3.6 7.2 NW 1013.1 15.5 24.3 0.0
17-07-2018 09:20 5 59 24.3 1010.1 7.2 8.6 NW 1013.2 15.8 23.9 0.0
17-07-2018 09:25 5 62 24.6 1010.1 3.6 6.1 NW 1013.2 16.9 24.6 0.0
17-07-2018 09:30 5 56 25.2 1010.2 8.6 9.7 NW 1013.3 15.8 24.5 0.0
17-07-2018 09:35 5 56 25.3 1010.2 7.2 8.6 NW 1013.3 15.9 24.9 0.0
17-07-2018 09:40 5 54 25.5 1010.1 3.6 6.1 NE 1013.2 15.5 25.5 0.0
17-07-2018 09:45 5 55 25.9 1010.1 5.0 7.2 NWW 1013.2 16.2 25.9 0.0
17-07-2018 09:50 5 52 26.0 1010.2 6.1 7.2 N 1013.3 15.4 26.0 0.0
17-07-2018 09:55 5 52 26.6 1010.2 2.5 6.1 E 1013.3 16.0 26.6 0.0
17-07-2018 10:00 5 48 26.7 1010.3 7.2 11.2 NE 1013.4 14.8 26.4 0.0
17-07-2018 10:05 5 48 26.7 1010.3 7.2 11.2 NE 1013.4 14.8 26.4 0.0
17-07-2018 10:10 5 47 26.4 1010.3 5.0 7.2 NE 1013.4 14.2 26.4 0.0
17-07-2018 10:15 5 46 26.1 1010.2 5.0 6.1 NWW 1013.3 13.6 26.1 0.0
17-07-2018 10:20 5 46 26.5 1010.2 7.2 9.7 NW 1013.3 14.0 26.2 0.0
17-07-2018 10:25 5 46 26.6 1010.3 5.0 7.2 NW 1013.4 14.1 26.6 0.0
17-07-2018 10:30 5 46 26.6 1010.3 5.0 7.2 NE 1013.4 14.1 26.6 0.0
17-07-2018 10:35 5 45 26.9 1010.2 11.2 13.3 NW 1013.3 14.0 26.0 0.0
17-07-2018 10:40 5 45 26.5 1010.3 5.0 7.2 N 1013.4 13.6 26.5 0.0
17-07-2018 10:45 5 46 26.2 1010.2 5.0 7.2 N 1013.3 13.7 26.2 0.0
17-07-2018 10:50 5 49 26.6 1010.1 6.1 8.6 N 1013.2 15.0 26.6 0.0
17-07-2018 10:55 5 46 26.9 1010.2 6.1 8.6 NW 1013.3 14.3 26.9 0.0
17-07-2018 11:00 5 46 27.3 1010.1 6.1 8.6 NW 1013.2 14.7 27.3 0.0
17-07-2018 11:05 5 48 26.8 1010.2 14.8 15.8 NW 1013.3 14.9 25.5 0.0
17-07-2018 11:10 5 48 26.3 1010.2 12.2 13.3 NWW 1013.3 14.4 25.2 0.0
17-07-2018 11:15 5 49 26.6 1010.1 3.6 5.0 N 1013.2 15.0 26.6 0.0
17-07-2018 11:20 5 44 27.3 1010.1 2.5 3.6 NW 1013.2 14.0 27.3 0.0
17-07-2018 11:25 5 44 26.9 1010.1 7.2 9.7 NW 1013.2 13.7 26.6 0.0
17-07-2018 11:30 5 46 27.1 1010.2 7.2 11.2 NW 1013.3 14.5 26.8 0.0
17-07-2018 11:35 5 46 27.5 1010.2 2.5 3.6 NW 1013.3 14.9 27.5 0.0
17-07-2018 11:40 5 44 27.7 1010.2 12.2 15.8 N 1013.3 14.4 26.8 0.0
17-07-2018 11:45 5 45 27.0 1010.3 11.2 13.3 NW 1013.4 14.1 26.1 0.0
17-07-2018 11:50 5 46 27.2 1010.3 3.6 6.1 W 1013.4 14.6 27.2 0.0
17-07-2018 11:55 5 44 27.8 1010.3 5.0 7.2 NW 1013.4 14.5 27.8 0.0
17-07-2018 12:00 5 44 27.7 1010.3 7.2 9.7 NW 1013.4 14.4 27.4 0.0
17-07-2018 12:05 5 44 27.7 1010.2 7.2 9.7 NW 1013.3 14.4 27.4 0.0
17-07-2018 12:10 5 43 27.4 1010.4 9.7 11.2 NW 1013.5 13.7 26.8 0.0
17-07-2018 12:15 5 44 26.8 1010.3 11.2 13.3 NW 1013.4 13.6 25.9 0.0
17-07-2018 12:20 5 45 26.2 1010.4 8.6 11.2 NWW 1013.5 13.4 25.6 0.0
17-07-2018 12:25 5 47 26.6 1010.4 5.0 7.2 W 1013.5 14.4 26.6 0.0
17-07-2018 12:30 5 46 26.6 1010.4 5.0 9.7 NW 1013.5 14.1 26.6 0.0
17-07-2018 12:35 5 44 26.4 1010.5 6.1 8.6 NW 1013.6 13.2 26.4 0.0
17-07-2018 12:40 5 46 26.7 1010.4 5.0 7.2 NW 1013.5 14.2 26.7 0.0
17-07-2018 12:47 5 49 27.0 1010.4 2.5 5.0 NW 1013.5 15.4 27.0 0.0
17-07-2018 12:52 5 44 27.5 1010.4 2.5 3.6 NW 1013.5 14.2 27.5 0.0
17-07-2018 12:57 5 43 27.4 1010.4 9.7 12.2 N 1013.5 13.7 26.8 0.0
17-07-2018 13:02 5 46 27.3 1010.3 6.1 7.2 N 1013.4 14.7 27.3 0.0
17-07-2018 13:07 5 45 27.5 1010.3 8.6 12.2 NW 1013.4 14.5 27.0 0.0
17-07-2018 13:12 5 45 26.9 1010.4 6.1 9.7 NW 1013.5 14.0 26.9 0.0
17-07-2018 13:17 5 45 27.1 1010.4 5.0 8.6 W 1013.5 14.2 27.1 0.0
17-07-2018 13:22 5 47 27.2 1010.4 7.2 9.7 N 1013.5 14.9 26.9 0.0
17-07-2018 13:27 5 44 27.3 1010.4 5.0 7.2 NW 1013.5 14.0 27.3 0.0
17-07-2018 13:32 5 44 27.7 1010.2 8.6 11.2 NW 1013.3 14.4 27.2 0.0
17-07-2018 13:37 5 43 27.6 1010.4 8.6 11.2 NW 1013.5 13.9 27.1 0.0
17-07-2018 13:42 5 42 27.6 1010.3 5.0 7.2 NW 1013.4 13.6 27.6 0.0
17-07-2018 13:47 5 42 27.7 1010.4 2.5 3.6 W 1013.5 13.7 27.7 0.0
17-07-2018 13:52 5 45 27.1 1010.3 13.3 14.8 NW 1013.4 14.2 26.0 0.0
17-07-2018 13:57 5 44 26.9 1010.2 5.0 6.1 W 1013.3 13.7 26.9 0.0
17-07-2018 14:02 5 44 27.3 1010.2 9.7 13.3 NW 1013.3 14.0 26.7 0.0
17-07-2018 14:07 5 44 27.3 1010.2 9.7 13.3 NW 1013.3 14.0 26.7 0.0
17-07-2018 14:12 5 43 27.6 1010.2 11.2 13.3 NW 1013.3 13.9 26.8 0.0
17-07-2018 14:17 5 44 27.4 1010.2 6.1 8.6 W 1013.3 14.1 27.4 0.0
17-07-2018 14:22 5 44 27.8 1010.2 12.2 14.8 NW 1013.3 14.5 26.9 0.0
17-07-2018 14:27 5 45 27.7 1010.3 11.2 13.3 NW 1013.4 14.7 26.9 0.0
17-07-2018 14:32 5 42 27.4 1010.3 6.1 8.6 NWW 1013.4 13.4 27.4 0.0
17-07-2018 14:37 5 43 27.8 1010.2 9.7 15.8 NW 1013.3 14.1 27.2 0.0
17-07-2018 14:42 5 44 27.4 1010.1 7.2 9.7 NW 1013.2 14.1 27.1 0.0
17-07-2018 14:47 5 44 27.2 1010.2 11.2 14.8 NW 1013.3 13.9 26.4 0.0
17-07-2018 14:52 5 45 27.3 1010.3 9.7 12.2 NW 1013.4 14.4 26.7 0.0
17-07-2018 14:57 5 43 27.6 1010.2 9.7 14.8 NW 1013.3 13.9 27.0 0.0
17-07-2018 15:02 5 44 27.7 1010.2 8.6 13.3 NW 1013.3 14.4 27.2 0.0
17-07-2018 15:07 5 46 28.1 1010.2 8.6 15.8 NWW 1013.3 15.4 27.7 0.0
17-07-2018 15:12 5 45 28.0 1010.1 9.7 14.8 NW 1013.2 15.0 27.4 0.0
17-07-2018 15:17 5 43 27.9 1010.1 12.2 15.8 N 1013.2 14.2 27.1 0.0
17-07-2018 15:22 5 45 28.2 1010.1 13.3 15.8 NW 1013.2 15.2 27.3 0.0
17-07-2018 15:27 5 45 28.4 1010.1 8.6 13.3 NW 1013.2 15.4 28.0 0.0
17-07-2018 15:32 5 45 28.3 1010.1 9.7 13.3 N 1013.2 15.3 27.8 0.0
17-07-2018 15:37 5 45 28.7 1010.1 7.2 8.6 NWW 1013.2 15.6 28.5 0.0
17-07-2018 15:42 5 45 28.7 1010.2 8.6 12.2 NW 1013.3 15.6 28.3 0.0
17-07-2018 15:47 5 42 28.6 1010.1 6.1 7.2 NW 1013.2 14.5 28.6 0.0
17-07-2018 15:52 5 43 28.8 1010.1 6.1 8.6 NW 1013.2 15.0 28.8 0.0
17-07-2018 15:57 5 41 29.0 1010.1 12.2 14.8 NW 1013.2 14.5 28.3 0.0
17-07-2018 16:02 5 43 28.5 1010.2 12.2 14.8 N 1013.3 14.7 27.8 0.0
17-07-2018 16:07 5 43 28.5 1010.1 12.2 14.8 N 1013.2 14.7 27.8 0.0
17-07-2018 16:12 5 46 28.1 1010.1 8.6 12.2 NW 1013.2 15.4 27.7 0.0
17-07-2018 16:17 5 44 28.3 1010.0 9.7 13.3 NW 1013.1 14.9 27.8 0.0
17-07-2018 16:22 5 45 28.3 1009.9 14.8 17.3 NW 1013.0 15.3 27.3 0.0
17-07-2018 16:27 5 45 28.0 1010.0 11.2 14.8 NW 1013.1 15.0 27.3 0.0
17-07-2018 16:32 5 46 28.2 1010.0 12.2 19.4 NW 1013.1 15.5 27.4 0.0
17-07-2018 16:37 5 45 28.2 1010.0 14.8 17.3 NW 1013.1 15.2 27.2 0.0
17-07-2018 16:42 5 44 28.4 1009.9 7.2 12.2 NW 1013.0 15.0 28.2 0.0
17-07-2018 16:47 5 42 28.6 1010.1 13.3 18.4 NW 1013.2 14.5 27.8 0.0
17-07-2018 16:52 5 42 28.7 1010.1 8.6 11.2 NW 1013.2 14.6 28.3 0.0
17-07-2018 16:57 5 42 28.4 1010.1 9.7 13.3 N 1013.2 14.3 27.9 0.0
17-07-2018 17:02 5 43 28.4 1010.1 14.8 18.4 NWW 1013.2 14.7 27.4 0.0
17-07-2018 17:07 5 45 28.2 1010.1 6.1 12.2 NE 1013.2 15.2 28.2 0.0
17-07-2018 17:12 5 42 28.8 1010.0 8.6 11.2 W 1013.1 14.6 28.4 0.0
17-07-2018 17:17 5 41 29.2 1010.1 11.2 15.8 NWW 1013.2 14.6 28.7 0.0
17-07-2018 17:22 5 42 29.2 1010.0 13.3 15.8 NW 1013.1 15.0 28.5 0.0
17-07-2018 17:27 5 44 28.7 1010.1 6.1 12.2 NE 1013.2 15.3 28.7 0.0
17-07-2018 17:32 5 43 28.4 1010.0 7.2 14.8 NE 1013.1 14.7 28.2 0.0
17-07-2018 17:37 5 43 28.7 1010.1 6.1 7.2 E 1013.2 14.9 28.7 0.0
17-07-2018 17:42 5 41 29.0 1010.1 11.2 13.3 NE 1013.2 14.5 28.4 0.0
17-07-2018 17:47 5 42 28.8 1010.0 6.1 13.3 N 1013.1 14.6 28.8 0.0
17-07-2018 17:52 5 43 28.2 1010.2 9.7 15.8 NE 1013.3 14.5 27.7 0.0
17-07-2018 17:57 5 45 28.3 1010.1 9.7 14.8 NE 1013.2 15.3 27.8 0.0
17-07-2018 18:02 5 43 27.8 1010.1 7.2 9.7 NW 1013.2 14.1 27.5 0.0
17-07-2018 18:07 5 43 27.8 1010.1 7.2 9.7 NW 1013.2 14.1 27.5 0.0
17-07-2018 18:12 5 42 27.8 1010.2 9.7 17.3 SWW 1013.3 13.7 27.2 0.0
17-07-2018 18:17 5 43 27.8 1010.1 9.7 18.4 N 1013.2 14.1 27.2 0.0
17-07-2018 18:22 5 43 27.9 1010.1 11.2 13.3 N 1013.2 14.2 27.2 0.0
17-07-2018 18:27 5 43 27.9 1010.2 5.0 8.6 NWW 1013.3 14.2 27.9 0.0
17-07-2018 18:32 5 45 28.2 1010.1 5.0 11.2 NW 1013.2 15.2 28.2 0.0
17-07-2018 18:37 5 45 28.4 1010.1 11.2 19.4 NE 1013.2 15.4 27.7 0.0
17-07-2018 18:42 5 45 28.3 1010.2 8.6 13.3 N 1013.3 15.3 27.9 0.0
17-07-2018 18:47 5 45 28.0 1010.2 9.7 13.3 NE 1013.3 15.0 27.4 0.0
17-07-2018 18:52 5 43 27.6 1010.0 8.6 12.2 NE 1013.1 13.9 27.1 0.0
17-07-2018 18:57 5 43 27.1 1010.1 9.7 13.3 N 1013.2 13.5 26.4 0.0
17-07-2018 19:02 5 44 27.1 1010.1 8.6 12.2 N 1013.2 13.8 26.6 0.0
17-07-2018 19:07 5 44 27.1 1010.1 7.2 11.2 N 1013.2 13.8 26.8 0.0
17-07-2018 19:12 5 46 27.6 1010.1 7.2 11.2 NW 1013.2 15.0 27.3 0.0
17-07-2018 19:17 5 43 27.3 1010.0 9.7 13.3 N 1013.1 13.7 26.7 0.0
17-07-2018 19:22 5 45 26.7 1010.0 6.1 8.6 W 1013.1 13.8 26.7 0.0
17-07-2018 19:27 5 45 26.6 1009.8 7.2 9.7 N 1012.9 13.7 26.3 0.0
17-07-2018 19:32 5 45 26.5 1010.0 6.1 8.6 NE 1013.1 13.6 26.5 0.0
17-07-2018 19:37 5 46 26.3 1010.0 5.0 7.2 NE 1013.1 13.8 26.3 0.0
17-07-2018 19:42 5 48 26.2 1010.1 3.6 6.1 N 1013.2 14.4 26.2 0.0
17-07-2018 19:47 5 48 26.0 1010.0 3.6 5.0 N 1013.1 14.2 26.0 0.0
17-07-2018 19:52 5 49 25.9 1010.1 5.0 7.2 NW 1013.2 14.4 25.9 0.0
17-07-2018 19:57 5 47 26.0 1010.1 7.2 11.2 NE 1013.2 13.8 25.7 0.0
17-07-2018 20:02 5 47 25.8 1009.9 6.1 8.6 N 1013.0 13.7 25.8 0.0
17-07-2018 20:07 5 47 25.8 1010.0 6.1 8.6 N 1013.1 13.7 25.8 0.0
17-07-2018 20:12 5 50 25.6 1010.0 3.6 6.1 W 1013.1 14.4 25.6 0.0
17-07-2018 20:17 5 50 25.6 1010.0 2.5 5.0 N 1013.1 14.4 25.6 0.0
17-07-2018 20:22 5 50 25.5 1010.1 2.5 3.6 N 1013.2 14.3 25.5 0.0
17-07-2018 20:27 5 50 25.4 1010.1 5.0 6.1 NW 1013.2 14.3 25.4 0.0
17-07-2018 20:32 5 51 25.0 1010.2 3.6 5.0 NW 1013.3 14.2 25.0 0.0
17-07-2018 20:37 5 52 25.0 1010.1 3.6 5.0 NW 1013.2 14.5 25.0 0.0
17-07-2018 20:42 5 52 25.0 1010.1 5.0 6.1 NW 1013.2 14.5 25.0 0.0
17-07-2018 20:47 5 54 24.8 1010.1 3.6 6.1 NW 1013.2 14.9 24.8 0.0
17-07-2018 20:52 5 55 24.4 1010.1 3.6 5.0 NW 1013.2 14.8 24.4 0.0
17-07-2018 20:57 5 57 24.2 1010.3 2.5 5.0 NW 1013.4 15.2 24.2 0.0
17-07-2018 21:02 5 58 24.1 1010.3 2.5 3.6 NW 1013.4 15.4 24.1 0.0
17-07-2018 21:07 5 58 24.1 1010.2 2.5 3.6 NW 1013.3 15.4 24.1 0.0
17-07-2018 21:12 5 57 24.0 1010.2 2.5 5.0 NW 1013.3 15.0 24.0 0.0
17-07-2018 21:17 5 61 23.7 1010.3 2.5 3.6 NW 1013.4 15.8 23.7 0.0
17-07-2018 21:22 5 65 22.9 1010.3 2.5 3.6 W 1013.4 16.0 22.9 0.0
17-07-2018 21:27 5 68 22.1 1010.3 2.5 3.6 NW 1013.4 15.9 22.1 0.0
17-07-2018 21:32 5 71 21.7 1010.4 2.5 5.0 NWW 1013.5 16.2 21.7 0.0
17-07-2018 21:37 5 73 21.3 1010.3 2.5 3.6 W 1013.4 16.3 21.3 0.0
17-07-2018 21:42 5 74 21.0 1010.4 2.5 3.6 NW 1013.5 16.2 21.0 0.0
17-07-2018 21:47 5 75 20.9 1010.5 2.5 3.6 W 1013.6 16.3 20.9 0.0
17-07-2018 21:52 5 76 20.7 1010.4 2.5 3.6 NW 1013.5 16.3 20.7 0.0
17-07-2018 21:57 5 75 20.7 1010.6 1.1 2.5 NW 1013.7 16.1 20.7 0.0
17-07-2018 22:02 5 74 20.7 1010.4 1.1 2.5 N 1013.5 15.9 20.7 0.0
17-07-2018 22:07 5 74 20.7 1010.4 1.1 2.5 N 1013.5 15.9 20.7 0.0
17-07-2018 22:12 5 75 20.4 1010.4 1.1 2.5 NW 1013.5 15.8 20.4 0.0
17-07-2018 22:17 5 76 20.3 1010.4 2.5 5.0 W 1013.5 16.0 20.3 0.0
17-07-2018 22:22 5 77 20.1 1010.4 3.6 5.0 W 1013.5 16.0 20.1 0.0
17-07-2018 22:27 5 79 19.9 1010.5 2.5 3.6 W 1013.6 16.2 19.9 0.0
17-07-2018 22:32 5 80 19.6 1010.6 2.5 3.6 NW 1013.7 16.1 19.6 0.0
17-07-2018 22:37 5 82 19.3 1010.5 2.5 3.6 NW 1013.6 16.2 19.3 0.0
17-07-2018 22:42 5 83 19.1 1010.6 1.1 2.5 NW 1013.7 16.2 19.1 0.0
17-07-2018 22:47 5 83 19.0 1010.6 1.1 2.5 NW 1013.7 16.1 19.0 0.0
17-07-2018 22:52 5 83 19.0 1010.6 2.5 3.6 NW 1013.7 16.1 19.0 0.0
17-07-2018 22:57 5 83 19.2 1010.6 1.1 2.5 NW 1013.7 16.3 19.2 0.0
17-07-2018 23:02 5 82 19.3 1010.7 1.1 2.5 NW 1013.8 16.2 19.3 0.0
17-07-2018 23:07 5 82 19.4 1010.7 2.5 3.6 NW 1013.8 16.3 19.4 0.0
17-07-2018 23:12 5 83 19.2 1010.8 2.5 3.6 NW 1013.9 16.3 19.2 0.0
17-07-2018 23:17 5 85 18.8 1010.7 1.1 2.5 NW 1013.8 16.2 18.8 0.0
17-07-2018 23:22 5 86 18.6 1010.8 2.5 3.6 W 1013.9 16.2 18.6 0.0
17-07-2018 23:27 5 86 18.4 1010.8 2.5 2.5 W 1013.9 16.0 18.4 0.0
17-07-2018 23:32 5 87 18.4 1010.8 3.6 3.6 W 1013.9 16.2 18.4 0.0
17-07-2018 23:37 5 87 18.4 1010.6 3.6 3.6 W 1013.7 16.2 18.4 0.0
17-07-2018 23:42 5 87 18.4 1010.8 2.5 3.6 W 1013.9 16.2 18.4 0.0
17-07-2018 23:47 5 88 18.2 1010.8 2.5 3.6 W 1013.9 16.2 18.2 0.0
17-07-2018 23:52 5 89 18.0 1010.8 1.1 3.6 W 1013.9 16.2 18.0 0.0
17-07-2018 23:57 5 89 17.8 1011.0 2.5 3.6 W 1014.1 16.0 17.8 0.0

                                                                             Tabelle: 08 : 00 UH

STATIONHÖHELUFTD.TEMP.T-MinT-MaxU%RR1RR12SSSDDFFFXWetter+WolkenBöen
UFS TW Ems 0 1013.1 18.4 17.9 19.3 90 ---- --- --- O 14 --- --- ---
UFS Deutsche Bucht 0 1013.5 18.9 18.5 19.8 87 ---- --- --- SO 11 --- --- ---
Helgoland 4 1013.5 19.6 17.7 20.0 84 0.0 0 --- SO 10 14 wolkenlos ---
List/Sylt 26 1013.4 19.4 17.0 21.6 75 0.0 0 0 SO 12 15 --- ---
Schleswig 43 1013.4 19.6 13.9 24.9 70 0.0 0 0 N 4 9 heiter ---
Leuchtturm Kiel 5 1013.1 20.4 19.3 24.6 81 ---- --- --- NW 7 --- --- ---
Kiel 27 1013.3 19.0 12.5 24.1 76 0.0 0 --- W 5 9 wolkenlos ---
Fehmarn 3 1013.0 20.4 15.2 21.8 89 0.0 0 --- W 11 14   ---
Arkona 42 1012.6 20.3 18.7 22.1 88 0.0 0 --- NW 10 14 --- ---
Norderney 11 1013.1 20.3 17.8 20.9 75 0.0 0 --- S 11 18 wolkenlos ---
Leuchtt. Alte Weser 32 1013.1 20.4 19.2 20.6 71 ---- --- --- SO 11 --- --- ---
Cuxhaven 5 1013.5 19.7 18.1 21.9 69 0.0 0 --- S 4 9 wolkenlos ---
Hamburg-Flh. 11 1013.4 18.8 12.3 25.4 73 0.0 0 0 W 2 11 heiter ---
Schwerin 59 1012.8 21.1 15.6 25.1 81 0.0 0 --- - 0 6 wolkenlos ---
Rostock 4 1012.9 20.1 16.4 21.6 90 0.0 0 --- W 6 9 --- ---
Greifswald 2 1012.6 18.8 16.5 23.2 88 0.0 0 0 W 5 8 leichter Regen ---
Emden 0 1013.1 17.7 12.0 23.8 86 0.0 0 --- SO 5 10   ---
Bremen-Flh. 5 1013.4 18.4 12.3 26.4 80 0.0 0 0 SO 2 4 heiter ---
Lüchow 17 1013.1 18.1 12.2 25.1 80 0.0 0 --- N 6 9 wolkenlos ---
Marnitz 81 1012.8 20.8 14.0 25.9 66 0.0 0 --- N 2 5 --- ---
Waren 70 1012.5 20.9 15.4 26.1 65 0.0 0 --- NW 5 13 --- ---
Neuruppin 38 1012.3 19.6 15.3 27.1 73 0.0 0 --- NW 3 8 --- ---
Angermünde 56 1011.8 20.0 16.9 25.7 72 0.0 0 0 NW 13 17 --- ---
Münster/Osnabr.-Flh. 48 1013.3 19.4 13.3 27.8 68 0.0 0 0 O 3 5 heiter ---
Hannover-Flh. 59 1013.4 17.7 12.9 26.7 70 0.0 0 0 W 4 5 heiter ---
Magdeburg 76 1012.7 21.0 14.5 27.9 60 0.0 0 --- N 4 8 wolkenlos ---
Potsdam 81 1012.3 17.6 15.7 25.3 83 0.0 0 0 W 4 14 heiter ---
Berlin-Tegel 37 1012.0 19.5 16.3 27.3 68 0.0 0 0 N 6 9 bewölkt ---
Berlin-Tempelhof 48 1011.9 20.6 17.9 27.3 64 0.0 0 --- NW 6 10 --- ---
Berlin-Dahlem 51 1012.0 19.6 16.1 24.7 --- ---- 0 0 N 7 --- bewölkt ---
Lindenberg 91 1011.6 18.6 17.2 26.0 82 0.0 0 0 NW 10 16 bedeckt ---
Düsseldorf-Flh. 45 1014.0 20.3 15.3 29.6 63 0.0 0 0 W 5 11 heiter ---
Essen 150 1013.7 19.5 16.4 28.7 66 0.0 0 --- SW 9 17 --- ---
Kahler Asten 839 ------ 19.4 17.0 19.4 54 0.0 0 --- N 11 16 --- ---
Bad Lippspringe 157 1013.5 19.4 12.1 26.8 71 0.0 0 --- - 0 3 --- ---
Fritzlar 174 1014.1 17.2 12.0 25.6 74 ---- 0 0 - 4 --- heiter ---
Brocken 1142 ------ 17.7 13.0 17.7 50 ---- --- 0 W 10 15 heiter ---
Leipzig-Flh. 142 1012.7 19.7 14.2 27.1 57 0.0 0 0 W 8 9 heiter ---
Dresden-Flh. 227 1012.6 17.5 14.5 25.0 71 0.0 0 0 W 9 11 heiter ---
Cottbus 69 1011.4 18.0 16.4 26.5 84 0.0 0 --- SW 6 10 leichter Regen ---
Görlitz 238 1011.4 17.5 15.1 25.7 87 0.0 0 0 W 7 12 leichter Regen ---
Aachen 231 1014.6 18.8 17.9 27.1 69 0.0 0 --- SW 14 22 --- ---
Nürburg 485 1014.6 18.1 13.3 24.9 55 0.0 0 --- SW 4 8 --- ---
Köln/Bonn-Flh. 92 1014.4 18.6 13.2 28.2 67 0.0 0 0 O 7 9 heiter ---
Gießen/Wettenberg 203 1014.1 16.4 12.4 23.7 77 0.0 0 --- S 4 7 --- ---
Wasserkuppe 921 ------ 17.7 14.5 18.4 62 0.0 0 0 W 11 14 heiter ---
Meiningen 450 1014.3 15.5 11.7 20.9 85 0.0 0 --- SO 6 8 --- ---
Erfurt 316 1013.7 17.1 12.2 23.6 72 0.0 0 0 SW 12 16 heiter ---
Gera 311 1013.3 18.1 13.4 25.5 69 0.0 0 --- SW 9 13 wolkenlos ---
Fichtelberg 1213 ------ 14.0 10.8 15.9 69 ---- 0 0 NW 24 30 heiter ---
Trier 265 1015.2 16.0 14.0 27.1 81 0.0 0 --- O 3 7 --- ---
Hahn-Flh. 497 1014.0 19.7 16.4 23.5 52 0.0 0 --- W 5 9 --- ---
Frankfurt/M-Flh. 112 1014.2 19.2 13.5 27.8 61 0.0 0 0 SO 5 9 heiter ---
OF-Wetterpark 119 1014.1 17.5 13.9 26.7 82 0.0 1 --- S 5 8 --- ---
Würzburg 268 1014.8 16.3 13.2 22.6 79 0.0 0 --- S 5 8 --- ---
Bamberg 239 1014.8 15.4 10.1 23.2 87 0.0 0 --- S 6 9 --- ---
Hof 567 1013.6 17.1 11.4 20.5 68 0.0 0 --- W 5 11 --- ---
Weiden 438 1014.4 15.0 12.1 19.9 85 0.0 0 --- W 5 8 Nebel ---
Saarbrücken-Flh. 320 1014.5 18.9 13.8 25.4 75 0.0 0 0 S 4 8 heiter ---
Karlsruhe-Rheinst. 116 1014.6 19.1 14.0 27.6 72 0.0 0 0 SW 10 15 heiter ---
Mannheim 96 1014.4 19.0 14.0 28.1 73 0.0 0 --- SO 6 10 --- ---
Stuttgart-Flh. 371 1014.9 17.2 13.2 24.8 80 0.0 0 --- O 3 4 heiter ---
Öhringen 276 1014.7 17.9 14.3 25.7 77 0.0 0 --- O 3 5 wolkenlos ---
Nürnberg-Flh. 314 1014.7 16.2 12.0 22.9 81 0.0 0 0 SO 5 8 heiter ---
Regensburg 366 1014.4 15.3 12.6 20.9 90 0.0 0 --- - 0 7 --- ---
Straubing 351 1013.9 17.4 12.2 22.1 76 0.0 0 --- W 11 18 --- ---
Großer Arber 1436 ------ 12.0 10.7 12.7 79 0.0 0 --- N 21 31 --- ---
Lahr 155 1015.2 19.4 14.9 27.0 72 0.0 0 --- SW 5 9 --- ---
Freudenstadt 797 ------ --- --- --- --- ---- --- --- -- --- --- --- ---
Stötten 734 1014.5 17.5 15.6 19.7 70 0.0 0 --- W 12 16 wolkenlos ---
Augsburg 462 1014.8 16.9 10.0 21.1 82 0.0 0 --- SW 3 4 --- ---
München-Flh. 444 1014.8 16.2 10.7 22.1 83 0.0 0 0 W 11 16 heiter ---
Fürstenzell 476 1013.9 15.1 13.1 18.8 91 0.0 0 --- NW 7 12 Dunst oder flacher Nebel ---
Feldberg/Schw. 1486 ------ 13.9 13.3 15.8 66 0.0 0 --- W 7 12 wolkenlos ---
Konstanz 443 1015.6 18.1 16.4 26.2 79 0.0 0 --- W 4 7 --- ---
Kempten 705 1015.5 16.0 11.4 21.8 77 0.0 0 --- -- 6 14 wolkenlos ---
Oberstdorf 806 ------ 13.5 10.4 21.5 88 0.0 0 --- W 2 8 wolkenlos ---
Zugspitze 2960 ------ 1.2 1.1 4.1 100 ---- --- 45 N 12 26   ---
Hohenpeißenberg 977 ------ 15.1 13.9 17.9 78 0.0 0 0 W 15 25 heiter ---

                                                                                               Tabelle: 20 : 00 UHR

STATIONHÖHELUFTD.TEMP.T-MinT-MaxU%RR1RR12SSSDDFFFXWetter+WolkenBöen
UFS TW Ems 0 1014.2 17.5 17.0 19.9 90 ---- --- --- W 32 --- --- ---
UFS Deutsche Bucht 26 1014.5 18.0 17.9 24.0 90 ---- --- --- W 29 --- --- ---
Helgoland 4 1014.4 19.4 19.3 24.9 80 0.0 0 --- W 27 39 wolkenlos ---
List/Sylt 26 1013.0 23.0 19.2 27.4 64 0.0 0 0 W 19 27 wolkenlos ---
Schleswig 43 1012.5 26.3 19.7 30.6 37 0.0 0 0 W 11 23 heiter ---
Leuchtturm Kiel 5 1012.4 23.8 19.5 25.1 64 ---- --- --- N 7 --- --- ---
Kiel 27 1012.3 26.8 19.1 28.3 32 0.0 0 --- NO 6 19 wolkenlos ---
Fehmarn 3 1012.3 24.7 20.2 25.9 61 0.0 0 --- NO 7 11   ---
Arkona 42 1012.0 20.0 18.1 22.7 82 0.0 8 --- NW 18 28 --- ---
Norderney 11 1015.1 19.6 19.5 26.5 80 0.0 0 --- W 27 42 wolkenlos ---
Leuchtt. Alte Weser 32 1014.2 18.5 18.4 27.1 83 ---- --- --- W 40 --- --- ---
Cuxhaven 5 1013.9 21.4 19.7 26.3 71 0.0 0 --- W 27 47 wolkenlos ---
Hamburg-Flh 11 1012.3 27.7 19.0 29.3 30 0.0 0 0 NW 15 22 heiter ---
Schwerin 59 1011.8 27.0 20.9 28.8 36 0.0 0 --- NO 6 23 --- ---
Rostock 4 1012.2 22.5 20.1 24.8 74 0.0 0 --- NO 11 16 --- ---
Greifswald 2 1012.2 20.2 18.8 24.2 86 0.5 1 0 NW 5 15 leichter Regen ---
Emden 0 1014.7 21.2 17.9 29.9 71 0.0 0 --- NW 19 36   ---
Bremen-Flh. 5 1013.5 22.5 18.3 31.5 60 0.0 0 0 NW 27 46 stark bewölkt ---
Lüchow 17 1011.6 28.6 18.1 31.2 31 0.0 0 --- NW 13 27 --- ---
Marnitz 81 1011.4 27.1 21.0 29.4 34 0.0 0 --- N 8 22 --- ---
Waren 70 1011.7 24.9 20.0 29.6 50 0.0 0 --- NO 10 26 --- ---
Neuruppin 38 1011.2 25.1 19.4 28.7 51 0.0 0 --- N 11 28 wolkenlos ---
Angermünde 56 1011.5 20.9 19.8 25.1 78 0.0 0 0 NW 12 19 leichter Regen ---
Münster/Osnabr.-Flh. 48 1013.7 27.4 19.6 30.8 38 0.0 0 0 W 20 35 heiter ---
Hannover-Flh. 59 1012.3 27.7 17.7 30.2 37 0.0 0 0 NW 18 24 heiter ---
Magdeburg 76 1011.2 29.2 20.9 31.7 31 0.0 0 --- N 13 31 --- ---
Potsdam 81 1010.9 25.2 17.7 30.5 54 0.0 0 0 NO 14 33 heiter ---
Berlin-Tegel 37 1011.0 24.7 19.6 29.4 56 0.0 0 0 NO 14 34 heiter ---
Berlin-Tempelhof 48 1011.1 24.6 20.6 30.0 55 0.0 0 --- NO 20 33 --- ---
Berlin-Dahlem 51 1011.0 24.3 19.6 29.0 --- ---- 0 0 NO 18 --- heiter ---
Lindenberg 91 1010.9 21.9 18.6 28.0 70 0.0 0 0 N 11 29 leichter Regen ---
Düsseldorf-Flh. 45 1014.7 26.7 20.3 29.7 38 0.0 0 0 W 24 38 heiter ---
Essen 150 1014.4 24.9 19.5 28.8 46 0.0 0 --- W 8 27 --- ---
Kahler Asten 839 ------ 20.8 19.3 23.2 49 0.0 0 --- NW 15 30 --- ---
Bad Lippspringe 157 1012.8 27.2 19.5 29.4 34 0.0 0 --- W 17 31 --- ---
Fritzlar 174 1013.1 27.0 17.2 30.4 35 ---- 0 0 NW 11 --- bewölkt ---
Brocken 1142 ------ 18.7 17.7 22.0 46 ---- 0 0 N 27 50 heiter ---
Leipzig-Flh. 142 1010.5 29.3 19.7 31.0 25 0.0 0 0 N 17 33 heiter ---
Dresden-Flh. 227 1009.7 26.8 17.6 29.1 36 0.0 0 0 N 17 28 heiter ---
Cottbus 69 1010.3 23.2 18.0 27.7 61 0.0 0 --- N 11 28 --- ---
Görlitz 238 1010.2 21.2 17.2 --- 68 0.0 0 0 N 14 32 leichter Regen ---
Aachen 231 1015.4 23.6 18.7 27.4 44 0.0 0 --- W 22 35 --- ---
Nürburg 485 1015.6 20.9 17.8 26.0 58 0.0 2 --- N 9 30 wolkenlos ---
Köln/Bonn-Flh. 92 1016.2 18.4 18.0 30.3 85 1.2 1 0 W 8 60 Gewitter Windböen
Gießen/Wettenberg 203 1013.6 23.5 16.3 29.5 51 0.0 6 --- W 10 18 --- ---
Wasserkuppe 921 ------ 20.9 17.7 24.0 45 0.0 1 0 NW 12 20 heiter ---
Meiningen 450 1012.4 24.4 15.6 27.6 41 0.0 0 --- W 11 26 --- ---
Erfurt 316 1011.5 27.1 17.2 30.0 28 0.0 0 0 NW 18 38 heiter ---
Gera 311 1010.6 27.6 18.2 30.6 25 0.0 0 --- N 13 35 --- ---
Fichtelberg 1213 ------ 17.6 13.5 21.7 52 ---- 0 0 NW 27 39 bewölkt ---
Trier 265 1014.6 26.4 16.2 29.8 37 0.0 0 --- W 14 31 --- ---
Hahn-Flh. 497 1014.5 22.9 19.5 26.4 51 0.0 0 --- W 3 7 --- ---
Frankfurt/M-Flh. 112 1013.9 27.9 19.2 31.1 29 0.0 0 0 NW 15 23 bewölkt ---
OF-Wetterpark 119 1014.0 21.2 17.5 30.2 94 0.0 6 --- SO 3 7 --- ---
Würzburg 268 1013.1 28.0 16.3 31.1 31 0.0 0 --- NW 11 29 --- ---
Bamberg 239 1011.9 27.1 15.4 30.1 32 0.0 0 --- W 15 34 --- ---
Hof 567 1010.8 25.7 17.1 27.7 23 0.0 0 --- NW 18 31 wolkenlos ---
Weiden 438 1011.3 25.2 14.8 28.4 40 0.0 0 --- W 4 10 --- ---
Saarbrücken-Flh. 320 1014.7 23.7 18.4 27.8 52 0.0 1 0 NW 12 25 heiter ---
Karlsruhe-Rheinst. 116 1014.3 27.6 19.2 31.6 38 0.0 0 --- N 7 20 --- ---
Mannheim 96 1014.1 27.8 19.0 30.8 35 0.0 0 --- NW 11 19 --- ---
Stuttgart-Flh. 371 1014.4 24.4 17.2 27.4 49 0.0 1 --- S 6 21 heiter ---
Öhringen 276 1013.7 26.2 18.0 30.0 43 0.0 0 --- W 13 23 --- ---
Nürnberg-Flh. 314 1012.0 26.5 --- 30.2 34 0.0 0 0 NW 25 35 heiter ---
Regensburg 366 1012.3 20.7 15.5 29.9 77 0.0 2 --- S 5 16 --- ---
Straubing 351 1012.1 24.4 17.5 29.3 44 0.0 0 --- NW 5 31 --- ---
Großer Arber 1436 ------ 15.1 12.1 18.8 55 0.0 0 --- NW 32 43 --- ---
Lahr 155 1015.0 23.1 19.5 29.5 71 0.0 3 --- NO 10 12 wolkenlos ---
Freudenstadt 797 ------ 16.3 15.2 25.1 79 0.4 1 --- NW 11 50 Regen Windböen
Stötten 734 1014.5 20.5 14.1 25.4 61 0.0 11 --- W 10 18 --- ---
Augsburg 462 1014.7 19.7 16.8 26.9 68 0.0 0 --- SW 15 27 --- ---
München-Flh. 444 1013.8 21.8 15.8 26.7 55 0.0 0 0 SW 26 37 heiter ---
Fürstenzell 476 1013.3 18.8 15.1 26.8 72 0.3 0 --- NW 32 56 Regen Windböen
Feldberg/Schw. 1486 ------ 15.5 13.9 17.9 59 0.0 0 --- W 12 28 --- ---
Konstanz 443 1015.1 23.4 18.1 29.3 62 0.0 1 --- N 5 12 --- ---
Kempten 705 1015.0 22.0 16.3 24.7 43 0.0 0 --- -- 10 28 --- ---
Oberstdorf 806 ------ 20.4 13.5 24.8 50 0.0 0 --- SO 4 14 --- ---
Zugspitze 2960 ------ 2.3 -0.3 2.9 92 ---- --- --- N 18 32   ---
Hohenpeißenberg 977 ------ 17.3 12.7 22.3 62 0.0 2 0 N 20 35 starkes Gewitter ---

 

  • Temperatur
  • Wetterzustand
  • Windrichtung und -geschwindigkeit
  • Luftdruck
  • relative Luftfeuchtigkeit
  • Sichtweite
  • Gesamtbedeckungsgrad
  • Niederschlag
  • Sonnenscheindauer

 Höhe:     m über NN
Luftd.:   auf Meereshöhe reduzierter Luftdruck in hPa
TEMP.:   Lufttemperatur in Grad Celsius
T-MIN:   Minimumtemperatur der Luft in 2m Höhe in Grad Celsius, von 18 UTC Vortag bis 06 UTC heute
T-MAX:  Maximumtemperatur der Luft in 2m Höhe in Grad Celsius, von 18 UTC Vortag bis 06 UTC heute
RR1:     Niederschlagsmenge, einstündig, mm ist gleich Liter pro
RR12:   Niederschlagsmenge, 12 stündig, 18 UTC Vortag bis 06 UTC heute in mm ist gleich Liter pro
SSS:     Gesamtschneehöhe
DD:      Windrichtung
FF:       Windgeschwindigkeit letztes 10-Minutenmittel in km/h
FX:       höchste Windspitze während der letzten Stunde in km/h
---:      Wert nicht vorhanden

 

2009-2018

Unwetterwarnungen

 

Radarbild          
aktueller Radarfilm Deutschland

Europa-Meteoalarm